createdAt,value
2018-09-11T09:48:22.234Z,170127500
2018-09-11T09:48:29.715Z,170127500
2018-09-11T09:48:37.312Z,170127500
2018-09-11T09:48:44.913Z,170127500
2018-09-11T09:48:52.471Z,170127500
2018-09-11T09:49:01.080Z,170127500
2018-09-11T09:49:08.669Z,170127500
2018-09-11T09:49:16.157Z,170127500
2018-09-11T09:49:23.594Z,170127500
2018-09-11T09:49:31.112Z,170127500
2018-09-11T09:49:38.760Z,170127500
2018-09-11T09:49:46.202Z,170127500
2018-09-11T09:49:53.661Z,170127500
2018-09-11T09:50:01.404Z,170127500
2018-09-11T09:50:21.998Z,170127500
2018-09-11T09:50:29.595Z,170127500
2018-09-11T09:50:37.039Z,170127500
2018-09-11T09:50:44.539Z,170127500
2018-09-11T09:50:52.283Z,170127500
2018-09-11T09:50:59.735Z,170127500
2018-09-11T09:51:07.186Z,170127500
2018-09-11T09:51:14.677Z,170127500
2018-09-11T09:51:22.356Z,170127500
2018-09-11T09:51:29.829Z,170127500
2018-09-11T09:51:37.312Z,170127500
2018-09-11T09:51:44.699Z,170127500
2018-09-11T09:51:52.272Z,170127500
2018-09-11T09:51:59.748Z,170127500
2018-09-11T09:52:07.233Z,170127500
2018-09-11T09:52:14.669Z,170127500
2018-09-11T09:52:22.150Z,170127500
2018-09-11T09:52:29.641Z,170127500
2018-09-11T09:52:37.238Z,170127500
2018-09-11T09:52:44.779Z,170127500
2018-09-11T09:52:52.269Z,170127500
2018-09-11T09:52:59.749Z,170127500
2018-09-11T09:53:07.236Z,170127500
2018-09-11T09:53:14.953Z,170127500
2018-09-11T09:53:22.473Z,170127500
2018-09-11T09:53:30.102Z,170127500
2018-09-11T09:53:37.834Z,170127500
2018-09-11T09:53:45.316Z,170127500
2018-09-11T09:53:52.760Z,170127500
2018-09-11T09:54:00.234Z,170127500
2018-09-11T09:54:07.715Z,170127500
2018-09-11T09:54:15.187Z,170127500
2018-09-11T09:54:22.676Z,170127500
2018-09-11T09:54:30.119Z,170127500
2018-09-11T09:54:37.594Z,170127500
2018-09-11T09:54:58.386Z,170127500
2018-09-11T09:55:05.956Z,170127500
2018-09-11T09:55:13.439Z,170127500
2018-09-11T09:55:20.891Z,170127500
2018-09-11T09:55:28.437Z,170127500
2018-09-11T09:55:35.874Z,170127500
2018-09-11T09:55:43.362Z,170127500
2018-09-11T09:55:50.843Z,170127500
2018-09-11T09:55:58.386Z,170127500
2018-09-11T09:56:05.914Z,170127500
2018-09-11T09:56:13.545Z,170127500
2018-09-11T09:56:21.062Z,170127500
2018-09-11T09:56:28.553Z,170127500
2018-09-11T09:56:36.062Z,170127500
2018-09-11T09:56:43.598Z,170127500
2018-09-11T09:56:51.158Z,170127500
2018-09-11T09:56:58.632Z,170127500
2018-09-11T09:57:06.236Z,170127500
2018-09-11T09:57:13.757Z,170127500
2018-09-11T09:57:21.193Z,170127500
2018-09-11T09:57:28.660Z,170127500
2018-09-11T09:57:36.077Z,170127500
2018-09-11T09:57:43.502Z,170127500
2018-09-11T09:57:51.149Z,170127500
2018-09-11T09:58:15.481Z,170127500
2018-09-11T09:58:22.980Z,170127500
2018-09-11T09:58:30.431Z,170127500
2018-09-11T09:58:37.993Z,170127500
2018-09-11T09:58:45.590Z,170127500
2018-09-11T09:58:53.029Z,170127500
2018-09-11T09:59:00.469Z,170127500
2018-09-11T09:59:07.948Z,170127500
2018-09-11T09:59:15.429Z,170127500
2018-09-11T09:59:22.870Z,170127500
2018-09-11T09:59:30.342Z,170127500
2018-09-11T09:59:37.831Z,170127500
2018-09-11T09:59:45.301Z,170127500
2018-09-11T09:59:52.781Z,170127500
2018-09-11T10:00:00.228Z,170127500
2018-09-11T10:00:07.709Z,170127500
2018-09-11T10:00:15.191Z,170127500
2018-09-11T10:00:22.673Z,170127500
2018-09-11T10:00:30.148Z,170127500
2018-09-11T10:00:37.720Z,170127500
2018-09-11T10:00:45.277Z,170127500
2018-09-11T10:01:09.960Z,170127500
2018-09-11T10:01:18.401Z,170127500
2018-09-11T10:01:26.837Z,170127500
2018-09-11T10:01:35.305Z,170127500
2018-09-11T10:01:43.790Z,170127500
2018-09-11T10:01:52.311Z,170127500
2018-09-11T10:02:00.700Z,170127500
2018-09-11T10:02:09.069Z,170127500
2018-09-11T10:02:17.501Z,170127500
2018-09-11T10:02:25.949Z,170127500
2018-09-11T10:02:34.381Z,170127500
2018-09-11T10:02:42.789Z,170127500
2018-09-11T10:02:51.188Z,170127500
2018-09-11T10:02:59.629Z,170127500
2018-09-11T10:03:08.101Z,170127500
2018-09-11T10:03:16.541Z,170127500
2018-09-11T10:03:24.917Z,170127500
2018-09-11T10:03:33.481Z,170127500
2018-09-11T10:03:56.877Z,170127500
2018-09-11T10:04:05.354Z,170127500
2018-09-11T10:04:13.954Z,170127500
2018-09-11T10:04:22.437Z,170127500
2018-09-11T10:04:30.914Z,170127500
2018-09-11T10:04:39.404Z,170127500
2018-09-11T10:04:47.793Z,170127500
2018-09-11T10:04:56.376Z,170127500
2018-09-11T10:05:20.557Z,170127500
2018-09-11T10:05:29.280Z,170127500
2018-09-11T10:05:37.877Z,170127500
2018-09-11T10:05:46.429Z,170127500
2018-09-11T10:05:55.076Z,170127500
2018-09-11T10:06:04.751Z,170127500
2018-09-11T10:06:29.554Z,170127500
2018-09-11T10:06:37.122Z,170127500
2018-09-11T10:06:44.668Z,170127500
2018-09-11T10:06:52.202Z,170127500
2018-09-11T10:06:59.755Z,170127500
2018-09-11T10:07:07.304Z,170127500
2018-09-11T10:07:14.874Z,170127500
2018-09-11T10:07:22.514Z,170127500
2018-09-11T10:07:30.184Z,170127500
2018-09-11T10:07:37.712Z,170127500
2018-09-11T10:07:45.279Z,170127500
2018-09-11T10:07:52.795Z,170127500
2018-09-11T10:08:00.344Z,170127500
2018-09-11T10:08:07.991Z,170127500
2018-09-11T10:08:34.275Z,170127500
2018-09-11T10:08:41.712Z,170127500
2018-09-11T10:08:49.152Z,170127500
2018-09-11T10:08:56.521Z,170127500
2018-09-11T10:09:03.991Z,170127500
2018-09-11T10:09:11.435Z,170127500
2018-09-11T10:09:18.862Z,170127500
2018-09-11T10:09:26.319Z,170127500
2018-09-11T10:09:33.784Z,170127500
2018-09-11T10:09:41.264Z,170127500
2018-09-11T10:09:48.755Z,170127500
2018-09-11T10:09:56.232Z,170127500
2018-09-11T10:10:03.832Z,170127500
2018-09-11T10:10:11.230Z,170127500
2018-09-11T10:10:18.625Z,170127500
2018-09-11T10:10:25.993Z,170127500
2018-09-11T10:10:33.393Z,170127500
2018-09-11T10:10:40.831Z,170127500
2018-09-11T10:10:48.384Z,170127500
2018-09-11T10:10:55.671Z,170127500
2018-09-11T10:11:03.070Z,170127500
2018-09-11T10:11:11.438Z,170127500
2018-09-11T10:11:18.865Z,170127500
2018-09-11T10:11:26.315Z,170127500
2018-09-11T10:11:33.743Z,170127500
2018-09-11T10:11:41.361Z,170127500
2018-09-11T10:11:48.805Z,170127500
2018-09-11T10:11:56.391Z,170127500
2018-09-11T10:12:03.793Z,170127500
2018-09-11T10:12:11.309Z,170127500
2018-09-11T10:12:18.789Z,170127500
2018-09-11T10:12:26.232Z,170127500
2018-09-11T10:12:33.710Z,170127500
2018-09-11T10:12:41.186Z,170127500
2018-09-11T10:12:48.594Z,170127500
2018-09-11T10:12:56.069Z,170127500
2018-09-11T10:13:03.550Z,170127500
2018-09-11T10:13:10.993Z,170127500
2018-09-11T10:13:18.468Z,170127500
2018-09-11T10:13:25.870Z,170127500
2018-09-11T10:13:33.311Z,170127500
2018-09-11T10:13:40.678Z,170127500
2018-09-11T10:13:48.069Z,170127500
2018-09-11T10:13:55.508Z,170127500
2018-09-11T10:14:03.003Z,170127500
2018-09-11T10:14:10.430Z,170127500
2018-09-11T10:14:18.031Z,170127500
2018-09-11T10:14:25.428Z,170127500
2018-09-11T10:14:32.870Z,170127500
2018-09-11T10:14:40.309Z,170127500
2018-09-11T10:14:47.828Z,170127500
2018-09-11T10:14:55.309Z,170127500
2018-09-11T10:15:02.828Z,170127500
2018-09-11T10:15:10.471Z,170127500
2018-09-11T10:16:39.226Z,170127500
2018-09-11T10:16:46.637Z,170127500
2018-09-11T10:16:54.116Z,170127500
2018-09-11T10:17:01.632Z,170127500
2018-09-11T10:17:09.084Z,170127500
2018-09-11T10:17:16.529Z,170127500
2018-09-11T10:17:23.914Z,170127500
2018-09-11T10:17:31.414Z,170127500
2018-09-11T10:17:38.823Z,170127500
2018-09-11T10:17:46.275Z,170127500
2018-09-11T10:17:53.805Z,170127500
2018-09-11T10:18:01.375Z,170127500
2018-09-11T10:18:08.804Z,170127500
2018-09-11T10:18:16.469Z,170127500
2018-09-11T10:18:23.960Z,170127500
2018-09-11T10:18:31.242Z,170127500
2018-09-11T10:18:38.667Z,170127500
2018-09-11T10:18:46.085Z,170127500
2018-09-11T10:18:53.488Z,170127500
2018-09-11T10:19:00.992Z,170127500
2018-09-11T10:19:08.478Z,170127500
2018-09-11T10:19:15.943Z,170127500
2018-09-11T10:19:23.429Z,170127500
2018-09-11T10:19:30.800Z,170127500
2018-09-11T10:19:38.342Z,170127500
2018-09-11T10:20:05.302Z,458
2018-09-11T10:20:12.760Z,455
2018-09-11T10:20:20.245Z,457
2018-09-11T10:20:27.652Z,458
2018-09-11T10:20:35.154Z,457
2018-09-11T10:20:43.675Z,456
2018-09-11T10:20:51.121Z,456
2018-09-11T10:21:18.271Z,456
2018-09-11T10:21:25.832Z,457
2018-09-11T10:21:33.301Z,457
2018-09-11T10:21:40.668Z,456
2018-09-11T10:21:48.108Z,455
2018-09-11T10:21:55.562Z,455
2018-09-11T10:22:03.188Z,454
2018-09-11T10:22:10.679Z,456
2018-09-11T10:22:18.160Z,457
2018-09-11T10:22:25.590Z,457
2018-09-11T10:22:32.988Z,455
2018-09-11T10:22:40.583Z,454
2018-09-11T10:23:07.243Z,453
2018-09-11T10:23:14.681Z,455
2018-09-11T10:23:22.056Z,455
2018-09-11T10:23:29.464Z,456
2018-09-11T10:23:36.824Z,456
2018-09-11T10:23:44.267Z,455
2018-09-11T10:23:51.665Z,96
2018-09-11T10:23:59.027Z,94
2018-09-11T10:24:06.429Z,94
2018-09-11T10:24:13.863Z,454
2018-09-11T10:24:21.325Z,456
2018-09-11T10:24:28.996Z,456
2018-09-11T10:24:36.170Z,455
2018-09-11T10:24:43.577Z,456
2018-09-11T10:24:50.901Z,456
2018-09-11T10:24:58.383Z,456
2018-09-11T10:25:05.808Z,455
2018-09-11T10:25:13.371Z,456
2018-09-11T10:25:21.065Z,457
2018-09-11T10:25:28.443Z,456
2018-09-11T10:25:35.795Z,458
2018-09-11T10:25:43.209Z,458
2018-09-11T10:25:51.187Z,454
2018-09-11T10:25:58.400Z,454
2018-09-11T10:26:05.788Z,456
2018-09-11T10:26:13.257Z,454
2018-09-11T10:26:20.631Z,456
2018-09-11T10:26:28.018Z,456
2018-09-11T10:26:35.672Z,456
2018-09-11T10:26:42.986Z,456
2018-09-11T10:26:51.396Z,456
2018-09-11T10:26:58.777Z,457
2018-09-11T10:27:06.148Z,454
2018-09-11T10:27:13.550Z,454
2018-09-11T10:27:20.947Z,453
2018-09-11T10:27:28.404Z,455
2018-09-11T10:27:35.778Z,455
2018-09-11T10:27:43.281Z,456
2018-09-11T10:27:50.775Z,456
2018-09-11T10:27:58.304Z,456
2018-09-11T10:28:05.969Z,457
2018-09-11T10:28:13.400Z,458
2018-09-11T10:28:20.738Z,457
2018-09-11T10:28:28.138Z,458
2018-09-11T10:28:35.517Z,456
2018-09-11T10:28:42.921Z,457
2018-09-11T10:28:50.521Z,457
2018-09-11T10:28:57.991Z,457
2018-09-11T10:29:05.291Z,457
2018-09-11T10:29:12.600Z,458
2018-09-11T10:29:20.004Z,457
2018-09-11T10:29:27.363Z,458
2018-09-11T10:29:34.684Z,456
2018-09-11T10:29:42.121Z,457
2018-09-11T10:29:49.414Z,456
2018-09-11T10:29:56.930Z,455
2018-09-11T10:30:05.225Z,456
2018-09-11T10:30:12.552Z,458
2018-09-11T10:30:19.880Z,456
2018-09-11T10:30:28.225Z,454
2018-09-11T10:30:35.701Z,457
2018-09-11T10:30:43.056Z,456
2018-09-11T10:30:50.427Z,456
2018-09-11T10:30:57.847Z,457
2018-09-11T10:31:05.345Z,455
2018-09-11T10:31:13.642Z,457
2018-09-11T10:31:21.033Z,454
2018-09-11T10:31:28.448Z,456
2018-09-11T10:32:42.635Z,455
2018-09-11T10:32:50.881Z,455
2018-09-11T10:32:58.951Z,457
2018-09-11T10:33:07.512Z,457
2018-09-11T10:33:15.411Z,458
2018-09-11T10:33:23.921Z,457
2018-09-11T10:33:32.272Z,456
2018-09-11T10:33:41.042Z,456
2018-09-11T10:33:49.023Z,457
2018-09-11T10:34:52.305Z,456
2018-09-11T10:34:59.886Z,458
2018-09-11T10:35:07.513Z,456
2018-09-11T10:35:15.443Z,457
2018-09-11T10:35:22.922Z,456
2018-09-11T10:35:30.292Z,457
2018-09-11T10:35:37.769Z,455
2018-09-11T10:35:45.191Z,457
2018-09-11T10:36:10.858Z,457
2018-09-11T10:36:18.274Z,455
2018-09-11T10:36:25.694Z,456
2018-09-11T10:36:33.068Z,456
2018-09-11T10:36:40.538Z,457
2018-09-11T10:37:05.629Z,453
2018-09-11T10:37:29.336Z,456
2018-09-11T10:37:37.528Z,456
2018-09-11T10:37:45.416Z,455
2018-09-11T10:37:55.708Z,459
2018-09-11T10:38:03.464Z,456
2018-09-11T10:38:11.056Z,456
2018-09-11T10:47:24.313Z,456
2018-09-11T10:47:47.721Z,456
2018-09-11T10:47:54.664Z,457
2018-09-11T10:48:02.156Z,456
2018-09-11T10:48:09.134Z,455
2018-09-11T10:48:16.706Z,454
2018-09-11T10:48:23.634Z,456
2018-09-11T10:48:30.551Z,457
2018-09-11T10:48:37.531Z,457
2018-09-11T10:48:44.493Z,456
2018-09-11T10:48:51.438Z,457
2018-09-11T10:48:58.339Z,457
2018-09-11T10:49:05.288Z,455
2018-09-11T10:49:12.236Z,455
2018-09-11T10:49:19.261Z,455
2018-09-11T10:49:26.287Z,455
2018-09-11T10:49:33.232Z,455
2018-09-11T10:49:40.157Z,455
2018-09-11T10:49:47.076Z,458
2018-09-11T10:49:53.997Z,457
2018-09-11T10:50:00.959Z,457
2018-09-11T10:50:07.884Z,457
2018-09-11T10:50:14.814Z,457
2018-09-11T10:50:41.584Z,456
2018-09-11T10:50:48.625Z,457
2018-09-11T10:50:55.652Z,457
2018-09-11T10:51:02.681Z,457
2018-09-11T10:51:09.715Z,455
2018-09-11T10:51:16.756Z,457
2018-09-11T10:51:23.782Z,457
2018-09-11T10:51:30.818Z,453
2018-09-11T10:51:37.899Z,455
2018-09-11T10:51:44.892Z,457
2018-09-11T10:51:51.933Z,458
2018-09-11T10:52:36.590Z,456
2018-09-11T10:52:44.641Z,457
2018-09-11T10:52:52.696Z,456
2018-09-11T10:53:00.760Z,457
2018-09-11T10:53:08.815Z,458
2018-09-11T10:53:16.871Z,457
2018-09-11T10:53:24.918Z,457
2018-09-11T10:53:32.968Z,456
2018-09-11T10:53:41.022Z,457
2018-09-11T10:53:49.082Z,456
2018-09-11T10:53:57.140Z,459
2018-09-11T10:54:05.182Z,455
2018-09-11T10:54:13.268Z,458
2018-09-11T10:54:21.331Z,457
2018-09-11T10:54:30.099Z,457
2018-09-11T10:54:38.155Z,456
2018-09-11T10:54:46.206Z,456
2018-09-11T10:54:54.245Z,458
2018-09-11T10:55:02.303Z,457
2018-09-11T10:55:10.363Z,456
2018-09-11T10:55:18.442Z,455
2018-09-11T10:55:26.497Z,457
2018-09-11T10:55:34.551Z,457
2018-09-11T10:55:42.610Z,457
2018-09-11T10:55:50.692Z,457
2018-09-11T10:55:58.740Z,458
2018-09-11T10:56:06.825Z,456
2018-09-11T10:56:14.917Z,458
2018-09-11T10:56:22.976Z,457
2018-09-11T10:56:31.024Z,458
2018-09-11T10:56:39.074Z,455
2018-09-11T10:56:47.136Z,457
2018-09-11T10:56:55.209Z,456
2018-09-11T10:57:03.512Z,457
2018-09-11T10:57:11.564Z,456
2018-09-11T10:57:19.618Z,456
2018-09-11T10:57:27.677Z,456
2018-09-11T10:57:35.722Z,457
2018-09-11T10:57:43.783Z,457
2018-09-11T10:57:51.830Z,456
2018-09-11T10:57:59.887Z,458
2018-09-11T10:58:07.939Z,457
2018-09-11T10:58:16.002Z,456
2018-09-11T10:58:24.063Z,458
2018-09-11T10:58:32.109Z,458
2018-09-11T10:58:40.160Z,456
2018-09-11T10:58:48.246Z,456
2018-09-11T10:58:56.296Z,456
2018-09-11T10:59:04.347Z,457
2018-09-11T10:59:12.404Z,456
2018-09-11T10:59:20.464Z,457
2018-09-11T10:59:28.527Z,455
2018-09-11T10:59:36.580Z,457
2018-09-11T10:59:44.673Z,455
2018-09-11T10:59:52.720Z,455
2018-09-11T11:00:00.795Z,456
2018-09-11T11:00:08.835Z,457
2018-09-11T11:00:16.939Z,457
2018-09-11T11:00:25.059Z,457
2018-09-11T11:00:33.136Z,457
2018-09-11T11:00:41.102Z,456
2018-09-11T11:00:49.154Z,458
2018-09-11T11:00:57.207Z,457
2018-09-11T11:01:05.265Z,457
2018-09-11T11:01:13.396Z,459
2018-09-11T11:01:21.471Z,457
2018-09-11T11:01:29.534Z,457
2018-09-11T11:01:37.598Z,456
2018-09-11T11:01:45.661Z,455
2018-09-11T11:01:54.604Z,457
2018-09-11T11:02:02.689Z,458
2018-09-11T11:02:10.746Z,457
2018-09-11T11:02:18.818Z,457
2018-09-11T11:02:26.878Z,457
2018-09-11T11:02:34.955Z,457
2018-09-11T11:02:43.070Z,456
2018-09-11T11:02:51.103Z,456
2018-09-11T11:02:59.218Z,458
2018-09-11T11:03:07.292Z,458
2018-09-11T11:03:15.412Z,456
2018-09-11T11:03:23.482Z,457
2018-09-11T11:03:31.530Z,457
2018-09-11T11:03:39.589Z,457
2018-09-11T11:03:47.647Z,457
2018-09-11T11:03:55.706Z,458
2018-09-11T11:04:04.597Z,458
2018-09-11T11:04:12.658Z,459
2018-09-11T11:04:20.720Z,458
2018-09-11T11:04:28.784Z,457
2018-09-11T11:04:36.849Z,457
2018-09-11T11:04:45.032Z,457
2018-09-11T11:04:53.022Z,457
2018-09-11T11:05:01.117Z,457
2018-09-11T11:05:09.163Z,457
2018-09-11T11:05:17.233Z,457
2018-09-11T11:05:25.293Z,458
2018-09-11T11:05:33.345Z,456
2018-09-11T11:05:41.432Z,455
2018-09-11T11:05:49.577Z,457
2018-09-11T11:05:57.633Z,457
2018-09-11T11:06:05.692Z,456
2018-09-11T11:06:13.742Z,457
2018-09-11T11:06:21.785Z,457
2018-09-11T11:06:29.840Z,457
2018-09-11T11:06:37.924Z,459
2018-09-11T11:06:45.970Z,459
2018-09-11T11:06:54.023Z,456
2018-09-11T11:07:02.078Z,458
2018-09-11T11:07:10.128Z,456
2018-09-11T11:07:18.229Z,457
2018-09-11T11:07:26.278Z,457
2018-09-11T11:07:34.330Z,456
2018-09-11T11:07:42.402Z,457
2018-09-11T11:07:50.461Z,457
2018-09-11T11:07:58.511Z,455
2018-09-11T11:08:06.567Z,456
2018-09-11T11:08:14.632Z,457
2018-09-11T11:08:22.685Z,457
2018-09-11T11:08:30.743Z,456
2018-09-11T11:08:38.779Z,457
2018-09-11T11:08:46.853Z,457
2018-09-11T11:08:55.892Z,456
2018-09-11T11:09:03.944Z,455
2018-09-11T11:09:12.011Z,457
2018-09-11T11:09:20.072Z,458
2018-09-11T11:09:28.130Z,456
2018-09-11T11:09:36.189Z,456
2018-09-11T11:09:44.252Z,458
2018-09-11T11:09:52.308Z,456
2018-09-11T11:10:00.391Z,457
2018-09-11T11:10:08.447Z,458
2018-09-11T11:10:16.509Z,457
2018-09-11T11:10:24.558Z,458
2018-09-11T11:10:32.614Z,457
2018-09-11T11:10:40.664Z,456
2018-09-11T11:10:48.715Z,456
2018-09-11T11:10:56.768Z,457
2018-09-11T11:11:04.821Z,457
2018-09-11T11:11:12.899Z,455
2018-09-11T11:11:20.979Z,457
2018-09-11T11:11:29.005Z,458
2018-09-11T11:11:37.059Z,456
2018-09-11T11:11:45.113Z,456
2018-09-11T11:11:53.183Z,457
2018-09-11T11:12:01.239Z,458
2018-09-11T11:12:09.302Z,457
2018-09-11T11:12:17.428Z,457
2018-09-11T11:12:25.509Z,456
2018-09-11T11:12:33.554Z,458
2018-09-11T11:12:41.617Z,457
2018-09-11T11:12:49.669Z,458
2018-09-11T11:12:57.716Z,458
2018-09-11T11:13:05.774Z,457
2018-09-11T11:13:13.829Z,457
2018-09-11T11:13:21.904Z,457
2018-09-11T11:13:30.000Z,457
2018-09-11T11:13:38.007Z,457
2018-09-11T11:13:46.055Z,456
2018-09-11T11:13:54.105Z,459
2018-09-11T11:14:02.170Z,456
2018-09-11T11:14:10.236Z,456
2018-09-11T11:14:18.304Z,457
2018-09-11T11:14:26.420Z,457
2018-09-11T11:14:34.583Z,457
2018-09-11T11:14:42.677Z,456
2018-09-11T11:14:51.706Z,456
2018-09-11T11:14:59.782Z,456
2018-09-11T11:15:07.838Z,458
2018-09-11T11:15:15.888Z,455
2018-09-11T11:15:23.936Z,455
2018-09-11T11:15:31.988Z,458
2018-09-11T11:15:40.035Z,455
2018-09-11T11:15:48.127Z,456
2018-09-11T11:15:57.161Z,457
2018-09-11T11:16:05.215Z,457
2018-09-11T11:16:13.280Z,457
2018-09-11T11:16:21.340Z,455
2018-09-11T11:16:29.413Z,455
2018-09-11T11:16:37.483Z,458
2018-09-11T11:16:45.537Z,458
2018-09-11T11:16:53.602Z,456
2018-09-11T11:17:01.691Z,458
2018-09-11T11:17:09.777Z,456
2018-09-11T11:17:17.753Z,456
2018-09-11T11:17:25.813Z,456
2018-09-11T11:17:33.867Z,457
2018-09-11T11:17:41.937Z,456
2018-09-11T11:17:49.994Z,457
2018-09-11T11:17:58.049Z,457
2018-09-11T11:18:06.114Z,459
2018-09-11T11:18:14.168Z,457
2018-09-11T11:18:22.218Z,457
2018-09-11T11:18:30.281Z,456
2018-09-11T11:18:38.338Z,458
2018-09-11T11:18:46.388Z,458
2018-09-11T11:18:54.472Z,456
2018-09-11T11:19:02.524Z,456
2018-09-11T11:19:10.592Z,458
2018-09-11T11:19:18.648Z,457
2018-09-11T11:19:26.709Z,457
2018-09-11T11:19:34.759Z,457
2018-09-11T11:19:42.855Z,459
2018-09-11T11:19:50.905Z,458
2018-09-11T11:19:58.959Z,456
2018-09-11T11:20:07.058Z,456
2018-09-11T11:20:15.068Z,459
2018-09-11T11:20:23.112Z,456
2018-09-11T11:20:31.159Z,457
2018-09-11T11:20:39.208Z,456
2018-09-11T11:20:47.372Z,457
2018-09-11T11:20:55.351Z,456
2018-09-11T11:21:03.401Z,456
2018-09-11T11:21:11.453Z,457
2018-09-11T11:21:19.509Z,457
2018-09-11T11:21:27.556Z,457
2018-09-11T11:21:35.608Z,458
2018-09-11T11:21:43.666Z,458
2018-09-11T11:21:51.803Z,456
2018-09-11T11:21:59.862Z,457
2018-09-11T11:22:07.921Z,457
2018-09-11T11:22:15.976Z,457
2018-09-11T11:22:24.036Z,456
2018-09-11T11:22:32.094Z,458
2018-09-11T11:22:40.142Z,456
2018-09-11T11:22:48.200Z,456
2018-09-11T11:22:56.252Z,458
2018-09-11T11:23:04.320Z,458
2018-09-11T11:23:12.366Z,458
2018-09-11T11:23:20.442Z,456
2018-09-11T11:23:29.227Z,460
2018-09-11T11:23:37.269Z,458
2018-09-11T11:23:45.392Z,457
2018-09-11T11:23:53.448Z,457
2018-09-11T11:24:02.188Z,455
2018-09-11T11:24:10.240Z,455
2018-09-11T11:24:18.291Z,457
2018-09-11T11:24:26.359Z,458
2018-09-11T11:24:34.424Z,457
2018-09-11T11:24:42.474Z,458
2018-09-11T11:24:50.529Z,458
2018-09-11T11:24:58.580Z,457
2018-09-11T11:25:06.658Z,457
2018-09-11T11:25:14.721Z,456
2018-09-11T11:25:22.785Z,458
2018-09-11T11:25:30.897Z,456
2018-09-11T11:25:38.948Z,458
2018-09-11T11:25:46.994Z,456
2018-09-11T11:25:55.094Z,457
2018-09-11T11:26:03.148Z,457
2018-09-11T11:26:11.214Z,458
2018-09-11T11:26:19.296Z,457
2018-09-11T11:26:27.371Z,457
2018-09-11T11:26:35.422Z,457
2018-09-11T11:26:43.476Z,458
2018-09-11T11:26:51.605Z,459
2018-09-11T11:26:59.689Z,458
2018-09-11T11:27:07.803Z,458
2018-09-11T11:27:15.864Z,457
2018-09-11T11:27:23.872Z,456
2018-09-11T11:27:31.938Z,457
2018-09-11T11:27:40.035Z,456
2018-09-11T11:27:48.078Z,457
2018-09-11T11:27:56.138Z,458
2018-09-11T11:28:04.180Z,454
2018-09-11T11:28:12.254Z,457
2018-09-11T11:28:20.305Z,458
2018-09-11T11:28:28.467Z,459
2018-09-11T11:28:36.531Z,456
2018-09-11T11:28:44.583Z,456
2018-09-11T11:28:52.646Z,457
2018-09-11T11:29:00.683Z,457
2018-09-11T11:29:08.744Z,457
2018-09-11T11:29:16.796Z,456
2018-09-11T11:29:24.902Z,457
2018-09-11T11:29:32.955Z,455
2018-09-11T11:29:41.019Z,458
2018-09-11T11:29:49.071Z,456
2018-09-11T11:29:57.147Z,458
2018-09-11T11:30:05.208Z,457
2018-09-11T11:30:13.261Z,457
2018-09-11T11:30:21.353Z,456
2018-09-11T11:30:29.404Z,455
2018-09-11T11:30:37.458Z,457
2018-09-11T11:30:45.511Z,456
2018-09-11T11:30:53.562Z,455
2018-09-11T11:31:01.632Z,457
2018-09-11T11:31:09.655Z,458
2018-09-11T11:31:17.734Z,457
2018-09-11T11:31:25.773Z,457
2018-09-11T11:31:33.838Z,457
2018-09-11T11:31:41.893Z,455
2018-09-11T11:31:49.940Z,456
2018-09-11T11:31:57.982Z,457
2018-09-11T11:32:06.042Z,456
2018-09-11T11:32:14.126Z,456
2018-09-11T11:32:22.223Z,457
2018-09-11T11:32:30.279Z,457
2018-09-11T11:32:38.334Z,458
2018-09-11T11:32:46.387Z,456
2018-09-11T11:32:54.444Z,457
2018-09-11T11:33:02.529Z,456
2018-09-11T11:33:10.587Z,456
2018-09-11T11:33:18.647Z,456
2018-09-11T11:33:26.699Z,455
2018-09-11T11:33:34.756Z,456
2018-09-11T11:33:42.809Z,456
2018-09-11T11:33:50.878Z,457
2018-09-11T11:33:58.941Z,457
2018-09-11T11:34:06.991Z,458
2018-09-11T11:34:15.066Z,456
2018-09-11T11:34:23.114Z,455
2018-09-11T11:34:31.161Z,457
2018-09-11T11:34:39.219Z,456
2018-09-11T11:34:47.270Z,457
2018-09-11T11:34:55.337Z,456
2018-09-11T11:35:03.447Z,457
2018-09-11T11:35:10.539Z,458
2018-09-11T11:35:19.224Z,457
2018-09-11T11:35:27.276Z,457
2018-09-11T11:35:35.335Z,456
2018-09-11T11:35:43.477Z,458
2018-09-11T11:35:51.529Z,455
2018-09-11T11:35:59.604Z,457
2018-09-11T11:36:07.651Z,458
2018-09-11T11:36:15.782Z,458
2018-09-11T11:36:23.884Z,456
2018-09-11T11:36:31.887Z,454
2018-09-11T11:36:39.961Z,456
2018-09-11T11:36:48.182Z,456
2018-09-11T11:36:56.269Z,456
2018-09-11T11:37:04.264Z,456
2018-09-11T11:37:12.420Z,456
2018-09-11T11:37:20.431Z,457
2018-09-11T11:37:28.530Z,459
2018-09-11T11:37:36.866Z,456
2018-09-11T11:38:01.133Z,456
2018-09-11T11:38:08.147Z,456
2018-09-11T11:38:15.180Z,457
2018-09-11T11:38:22.204Z,456
2018-09-11T11:38:29.275Z,456
2018-09-11T11:38:36.307Z,457
2018-09-11T11:38:43.360Z,456
2018-09-11T11:38:50.392Z,456
2018-09-11T11:38:57.419Z,458
2018-09-11T11:39:04.460Z,457
2018-09-11T11:39:11.502Z,458
2018-09-11T11:39:18.547Z,457
2018-09-11T11:39:25.582Z,458
2018-09-11T11:39:32.627Z,457
2018-09-11T11:39:40.638Z,457
2018-09-11T11:40:07.465Z,457
2018-09-11T11:40:14.629Z,457
2018-09-11T11:40:21.776Z,457
2018-09-11T11:40:28.903Z,456
2018-09-11T11:40:36.056Z,457
2018-09-11T11:40:43.210Z,457
2018-09-11T11:40:50.425Z,458
2018-09-11T11:40:57.557Z,457
2018-09-11T11:41:04.707Z,458
2018-09-11T11:41:11.840Z,457
2018-09-11T11:41:18.962Z,456
2018-09-11T11:41:41.226Z,456
2018-09-11T11:41:49.297Z,456
2018-09-11T11:41:57.486Z,456
2018-09-11T11:42:05.603Z,457
2018-09-11T11:42:13.749Z,457
2018-09-11T11:42:21.878Z,456
2018-09-11T11:42:30.071Z,457
2018-09-11T11:42:42.184Z,455
2018-09-11T11:42:55.702Z,458
2018-09-11T11:43:06.208Z,457
2018-09-11T11:43:14.386Z,456
2018-09-11T11:43:25.171Z,458
2018-09-11T11:43:33.301Z,457
2018-09-11T11:43:41.395Z,457
2018-09-11T11:43:49.516Z,457
2018-09-11T11:43:57.595Z,456
2018-09-11T11:44:05.673Z,458
2018-09-11T11:44:13.730Z,457
2018-09-11T11:44:21.779Z,457
2018-09-11T11:44:29.840Z,456
2018-09-11T11:44:37.971Z,456
2018-09-11T11:44:46.032Z,456
2018-09-11T11:44:54.107Z,457
2018-09-11T11:45:02.159Z,455
2018-09-11T11:45:10.259Z,456
2018-09-11T11:45:18.317Z,457
2018-09-11T11:45:26.378Z,458
2018-09-11T11:45:34.491Z,457
2018-09-11T11:45:42.603Z,457
2018-09-11T11:45:50.920Z,457
2018-09-11T11:45:58.936Z,456
2018-09-11T11:46:07.110Z,457
2018-09-11T11:46:15.212Z,457
2018-09-11T11:46:23.853Z,457
2018-09-11T11:46:31.926Z,456
2018-09-11T11:46:40.065Z,457
2018-09-11T11:46:48.596Z,456
2018-09-11T11:46:56.706Z,456
2018-09-11T11:47:04.820Z,456
2018-09-11T11:47:12.945Z,456
2018-09-11T11:47:21.197Z,458
2018-09-11T11:47:29.338Z,456
2018-09-11T11:47:37.502Z,456
2018-09-11T11:47:45.780Z,456
2018-09-11T11:47:54.066Z,457
2018-09-11T11:48:02.257Z,457
2018-09-11T11:48:10.353Z,458
2018-09-11T11:48:18.607Z,456
2018-09-11T11:48:45.498Z,-1
2018-09-11T11:48:53.833Z,-1
2018-09-11T11:49:03.000Z,-1